Prairie Center, Wyoming
Current Conditions -  °F | °C
As of 8:53 PM on Thursday 27 Nov 2014 (Local Time) from KTOR Reporting Station
Clear Clear  
Wind Chill: 52°   Ceiling: Unl
Heat Index: 52°   Visibility: 10mi
Dew Point: 25°   Wind: 21mph
Humidity: 35%   Direction: 280°W
Pressure: 29.96"   Gusts: 31mph
Location:  41.9687°N, 104.195°W
Report Text: KTOR 280353Z AUTO 28018G27KT 10SM CLR 11/M04 A2996 RMK AO2 PK WND 28029/0320 SLP154 T01111039 $
Loading
Personal Weather Stations






























Interactive Weather Map New forecast layout! Learn more

10-Day Weather Forecast

Advertisements
Track Severe Weather on mobile